Southwest Washington Regional Airport Kelso US
ICAO: KKLS
IATA: KLS
Category: Medium
Scheduled Services: No

Elevation: 20 ft
TransAlt. 18000 ft.

Airport Communications:
AWOS 3:135.075
SEATTLE CNTR:124.2
SEATTLE RDO:122.25
CTAF/UNICOM:122.8

KKLS Zoom In..

Runways:

(A) RW 12 length 4391 ft width 100 ft
---- / hdg 123

(B) RW 30 length 4391 ft width 100 ft
---- / hdg 303

Location; KKLS
Day. 23 / Time. 21.56 Zulu
* Altimeter: 29.90
* Temperature: 08° c. 46.4°f.
* Wind from: 140° Speed 15 kn with Gusts up to 23 kn.
Dewpoint: 06° c.
Visibility: 9 Statute Miles.
Clouds: Few 1500 ft.
Clouds: Broken 1900 ft.
Clouds: Overcast 5000 ft.
Conditions: Rain.

KKLS 232156Z AUTO 14015G23KT 9SM RA FEW015 BKN019 OVC050 08/06 A2990 RMK AO2 PK WND 15026/2125 RAB02 PRESFR SLP128 P0008 T00780061


Wind From 140°
Speed 15 kn.

YouTube Music Video
 
jpsmedia.com for Web Design  worldairports.se 2018   terms of use